createdAt,value
2018-11-23T00:00:18.525Z,23.23
2018-11-23T00:02:47.864Z,24.00
2018-11-23T00:05:16.424Z,23.73
2018-11-23T00:07:45.142Z,24.17
2018-11-23T00:10:15.068Z,22.43
2018-11-23T00:12:43.924Z,23.67
2018-11-23T00:15:13.889Z,24.37
2018-11-23T00:17:42.504Z,25.00
2018-11-23T00:20:14.479Z,25.83
2018-11-23T00:22:42.980Z,27.87
2018-11-23T00:25:13.801Z,21.23
2018-11-23T00:27:42.425Z,22.10
2018-11-23T00:30:12.943Z,22.57
2018-11-23T00:32:41.621Z,20.20
2018-11-23T00:35:12.218Z,21.00
2018-11-23T00:37:40.912Z,22.70
2018-11-23T00:40:11.935Z,22.77
2018-11-23T00:42:40.781Z,22.23
2018-11-23T00:45:11.337Z,22.93
2018-11-23T00:47:39.843Z,21.73
2018-11-23T00:50:10.841Z,23.33
2018-11-23T00:52:40.047Z,23.93
2018-11-23T00:55:10.374Z,24.17
2018-11-23T00:57:39.347Z,24.70
2018-11-23T01:00:11.693Z,23.23
2018-11-23T01:02:40.254Z,22.80
2018-11-23T01:05:09.918Z,22.63
2018-11-23T01:07:38.501Z,22.70
2018-11-23T01:10:08.846Z,22.37
2018-11-23T01:12:38.203Z,22.93
2018-11-23T01:15:07.206Z,23.17
2018-11-23T01:17:36.152Z,22.23
2018-11-23T01:20:05.405Z,23.17
2018-11-23T01:22:34.080Z,22.80
2018-11-23T01:25:02.860Z,22.23
2018-11-23T01:27:31.479Z,21.23
2018-11-23T01:30:00.074Z,21.63
2018-11-23T01:32:28.921Z,21.20
2018-11-23T01:34:57.708Z,20.50
2018-11-23T01:37:26.424Z,21.00
2018-11-23T01:39:55.184Z,20.20
2018-11-23T01:42:23.885Z,20.80
2018-11-23T01:44:52.722Z,21.17
2018-11-23T01:47:22.833Z,23.17
2018-11-23T01:49:51.397Z,24.60
2018-11-23T01:52:19.977Z,23.20
2018-11-23T01:54:48.618Z,23.57
2018-11-23T01:57:17.562Z,23.13
2018-11-23T01:59:46.161Z,23.67
2018-11-23T02:02:14.653Z,22.03
2018-11-23T02:04:43.191Z,21.70
2018-11-23T02:07:11.804Z,21.30
2018-11-23T02:09:40.277Z,22.60
2018-11-23T02:12:08.836Z,21.77
2018-11-23T02:14:37.393Z,23.47
2018-11-23T02:17:05.925Z,22.20
2018-11-23T02:19:34.438Z,23.30
2018-11-23T02:22:03.268Z,22.90
2018-11-23T02:24:31.934Z,22.00
2018-11-23T02:27:00.602Z,22.27
2018-11-23T02:29:29.329Z,21.63
2018-11-23T02:31:57.824Z,23.23
2018-11-23T02:34:26.354Z,24.97
2018-11-23T02:36:54.946Z,23.80
2018-11-23T02:39:23.496Z,21.87
2018-11-23T02:41:52.156Z,23.47
2018-11-23T02:44:20.729Z,21.67
2018-11-23T02:46:49.413Z,21.87
2018-11-23T02:49:18.067Z,19.43
2018-11-23T02:51:46.766Z,21.77
2018-11-23T02:54:15.271Z,21.80
2018-11-23T02:56:45.877Z,21.43
2018-11-23T02:59:14.927Z,21.90
2018-11-23T03:01:43.402Z,20.47
2018-11-23T03:04:12.401Z,18.50
2018-11-23T03:06:41.009Z,17.10
2018-11-23T03:09:10.470Z,18.30
2018-11-23T03:11:40.465Z,15.67
2018-11-23T03:14:09.595Z,16.17
2018-11-23T03:16:38.536Z,15.80
2018-11-23T03:19:07.732Z,15.67
2018-11-23T03:21:36.328Z,15.57
2018-11-23T03:24:04.933Z,16.20
2018-11-23T03:26:33.573Z,17.63
2018-11-23T03:29:02.234Z,19.13
2018-11-23T03:31:30.721Z,18.47
2018-11-23T03:33:59.360Z,17.97
2018-11-23T03:36:28.039Z,20.20
2018-11-23T03:38:56.680Z,18.60
2018-11-23T03:41:25.192Z,17.73
2018-11-23T03:43:53.975Z,18.60
2018-11-23T03:46:22.631Z,18.23
2018-11-23T03:48:51.132Z,18.67
2018-11-23T03:51:19.951Z,19.47
2018-11-23T03:53:48.495Z,19.37
2018-11-23T03:56:16.993Z,18.17
2018-11-23T03:58:45.589Z,19.60
2018-11-23T04:01:14.243Z,18.77
2018-11-23T04:03:42.907Z,18.97
2018-11-23T04:06:11.441Z,19.20
2018-11-23T04:08:40.083Z,20.70
2018-11-23T04:11:08.873Z,19.47
2018-11-23T04:13:37.425Z,19.63
2018-11-23T04:16:06.085Z,19.37
2018-11-23T04:18:34.769Z,18.37
2018-11-23T04:21:04.000Z,19.37
2018-11-23T04:23:33.596Z,19.93
2018-11-23T04:26:02.315Z,18.20
2018-11-23T04:28:31.050Z,19.47
2018-11-23T04:30:59.560Z,18.80
2018-11-23T04:33:28.105Z,19.90
2018-11-23T04:35:57.327Z,18.63
2018-11-23T04:38:25.989Z,17.90
2018-11-23T04:40:54.827Z,17.93
2018-11-23T04:43:23.492Z,17.20
2018-11-23T04:45:52.105Z,18.40
2018-11-23T04:48:20.847Z,17.60
2018-11-23T04:50:49.452Z,18.30
2018-11-23T04:53:18.787Z,17.70
2018-11-23T04:55:47.334Z,17.53
2018-11-23T04:58:15.983Z,17.87
2018-11-23T05:00:44.672Z,17.90
2018-11-23T05:03:13.388Z,17.93
2018-11-23T05:05:41.953Z,17.67
2018-11-23T05:08:10.645Z,17.57
2018-11-23T05:10:39.294Z,18.63
2018-11-23T05:13:07.997Z,16.47
2018-11-23T05:15:36.662Z,16.43
2018-11-23T05:18:05.542Z,25.13
2018-11-23T05:20:34.073Z,33.27
2018-11-23T05:23:02.572Z,30.70
2018-11-23T05:25:31.054Z,23.37
2018-11-23T05:27:59.613Z,20.00
2018-11-23T05:30:28.253Z,20.30
2018-11-23T05:32:57.670Z,23.60
2018-11-23T05:35:26.233Z,21.70
2018-11-23T05:37:55.053Z,19.27
2018-11-23T05:40:23.724Z,18.07
2018-11-23T05:42:52.303Z,19.10
2018-11-23T05:45:22.073Z,18.03
2018-11-23T05:47:50.849Z,17.23
2018-11-23T05:50:22.033Z,17.33
2018-11-23T05:52:50.585Z,17.43
2018-11-23T05:55:19.246Z,17.73
2018-11-23T05:57:48.017Z,17.60
2018-11-23T06:00:19.529Z,17.37
2018-11-23T06:02:48.350Z,20.67
2018-11-23T06:05:16.978Z,20.20
2018-11-23T06:07:45.848Z,20.87
2018-11-23T06:10:15.751Z,20.30
2018-11-23T06:12:44.277Z,19.37
2018-11-23T06:15:15.237Z,20.60
2018-11-23T06:17:44.445Z,20.17
2018-11-23T06:20:15.054Z,18.93
2018-11-23T06:22:45.002Z,20.37
2018-11-23T06:25:18.624Z,18.80
2018-11-23T06:27:47.122Z,19.43
2018-11-23T06:30:15.740Z,28.20
2018-11-23T06:32:55.537Z,30.30
2018-11-23T06:35:24.172Z,25.90
2018-11-23T06:37:52.800Z,27.17
2018-11-23T06:40:21.358Z,24.27
2018-11-23T06:42:49.891Z,24.10
2018-11-23T06:45:18.633Z,23.13
2018-11-23T06:47:47.146Z,22.87
2018-11-23T06:50:15.998Z,21.13
2018-11-23T06:52:44.653Z,20.00
2018-11-23T06:55:13.346Z,19.27
2018-11-23T06:57:42.337Z,20.90
2018-11-23T07:00:14.986Z,20.20
2018-11-23T07:02:44.651Z,19.80
2018-11-23T07:05:13.753Z,17.50
2018-11-23T07:07:42.369Z,17.63
2018-11-23T07:10:11.690Z,17.87
2018-11-23T07:12:40.830Z,18.43
2018-11-23T07:15:11.024Z,20.10
2018-11-23T07:17:40.389Z,19.33
2018-11-23T07:20:10.463Z,19.57
2018-11-23T07:22:39.802Z,20.30
2018-11-23T07:25:09.666Z,19.10
2018-11-23T07:27:38.335Z,20.10
2018-11-23T07:30:20.193Z,18.80
2018-11-23T07:32:48.979Z,19.73
2018-11-23T07:35:17.754Z,20.57
2018-11-23T07:37:46.586Z,20.20
2018-11-23T07:40:27.990Z,21.13
2018-11-23T07:42:57.053Z,21.40
2018-11-23T07:45:25.708Z,20.33
2018-11-23T07:47:54.264Z,19.40
2018-11-23T07:50:23.038Z,20.37
2018-11-23T07:52:51.606Z,23.97
2018-11-23T07:55:20.127Z,30.83
2018-11-23T07:57:48.946Z,27.50
2018-11-23T08:00:19.138Z,180.70
2018-11-23T08:02:48.436Z,29.20
2018-11-23T08:05:17.968Z,30.37
2018-11-23T08:07:46.473Z,30.80
2018-11-23T08:10:15.026Z,33.00
2018-11-23T08:12:45.010Z,34.90
2018-11-23T08:15:17.894Z,33.30
2018-11-23T08:17:46.755Z,48.77
2018-11-23T08:20:17.587Z,39.13
2018-11-23T08:22:46.735Z,39.30
2018-11-23T08:25:17.442Z,34.37
2018-11-23T08:27:47.332Z,36.50
2018-11-23T08:30:20.531Z,33.43
2018-11-23T08:32:49.060Z,30.27
2018-11-23T08:35:17.704Z,30.10
2018-11-23T08:37:46.280Z,32.33
2018-11-23T08:40:16.912Z,32.57
2018-11-23T08:42:47.612Z,29.37
2018-11-23T08:45:17.465Z,29.63
2018-11-23T08:47:46.083Z,27.40
2018-11-23T08:50:30.767Z,27.07
2018-11-23T08:52:59.563Z,29.03
2018-11-23T08:55:28.322Z,27.17
2018-11-23T08:57:57.141Z,30.00
2018-11-23T09:00:27.812Z,30.07
2018-11-23T09:02:58.430Z,30.77
2018-11-23T09:05:27.997Z,31.63
2018-11-23T09:07:57.147Z,27.43
2018-11-23T09:10:27.646Z,25.53
2018-11-23T09:12:57.762Z,26.93
2018-11-23T09:15:26.551Z,25.30
2018-11-23T09:17:55.234Z,24.43
2018-11-23T09:20:23.904Z,25.43
2018-11-23T09:22:52.484Z,26.43
2018-11-23T09:25:22.305Z,26.53
2018-11-23T09:27:51.225Z,28.03
2018-11-23T09:30:20.934Z,27.23
2018-11-23T09:32:50.019Z,28.20
2018-11-23T09:35:18.734Z,27.87
2018-11-23T09:37:48.324Z,29.37
2018-11-23T09:40:24.640Z,29.87
2018-11-23T09:42:53.543Z,29.77
2018-11-23T09:45:23.449Z,41.83
2018-11-23T09:47:53.346Z,34.63
2018-11-23T09:50:23.113Z,35.50
2018-11-23T09:52:52.966Z,37.17
2018-11-23T09:55:22.398Z,38.47
2018-11-23T09:57:51.030Z,37.47
2018-11-23T10:00:23.094Z,39.93
2018-11-23T10:02:52.908Z,46.47
2018-11-23T10:05:21.877Z,43.20
2018-11-23T10:07:52.743Z,39.07
2018-11-23T10:10:21.896Z,44.47
2018-11-23T10:12:50.564Z,44.73
2018-11-23T10:15:19.739Z,43.03
2018-11-23T10:17:48.278Z,48.53
2018-11-23T10:20:18.427Z,51.10
2018-11-23T10:22:47.452Z,47.53
2018-11-23T10:25:17.506Z,47.07
2018-11-23T10:27:46.331Z,47.80
2018-11-23T10:30:17.302Z,51.23
2018-11-23T10:32:47.069Z,52.77
2018-11-23T10:35:15.745Z,50.00
2018-11-23T10:37:45.187Z,65.43
2018-11-23T10:40:20.000Z,62.07
2018-11-23T10:42:48.599Z,61.17
2018-11-23T10:45:19.190Z,55.47
2018-11-23T10:47:48.475Z,57.83
2018-11-23T10:50:18.744Z,58.17
2018-11-23T10:52:47.413Z,68.53
2018-11-23T10:55:17.971Z,77.87
2018-11-23T10:57:46.801Z,60.27
2018-11-23T11:00:21.460Z,57.80
2018-11-23T11:02:55.966Z,60.53
2018-11-23T11:05:34.912Z,61.73
2018-11-23T11:08:04.469Z,62.30
2018-11-23T11:10:33.124Z,61.77
2018-11-23T11:13:01.818Z,60.33
2018-11-23T11:15:30.494Z,61.10
2018-11-23T11:17:59.264Z,62.87
2018-11-23T11:20:27.788Z,61.43
2018-11-23T11:22:56.436Z,62.87
2018-11-23T11:25:24.963Z,66.37
2018-11-23T11:27:53.487Z,67.83
2018-11-23T11:30:22.141Z,64.77
2018-11-23T11:32:51.019Z,65.60
2018-11-23T11:35:19.741Z,60.93
2018-11-23T11:37:48.440Z,63.63
2018-11-23T11:40:18.410Z,68.83
2018-11-23T11:42:47.137Z,70.23
2018-11-23T11:45:18.101Z,71.83
2018-11-23T11:47:47.389Z,68.77
2018-11-23T11:50:16.130Z,69.90
2018-11-23T11:52:46.306Z,69.33
2018-11-23T11:55:16.178Z,65.03
2018-11-23T11:57:45.502Z,73.47
2018-11-23T12:00:16.614Z,71.33
2018-11-23T12:02:45.297Z,62.80
2018-11-23T12:05:14.385Z,63.27
2018-11-23T12:07:43.100Z,61.43
2018-11-23T12:10:14.545Z,64.30
2018-11-23T12:12:43.072Z,64.63
2018-11-23T12:15:12.473Z,55.17
2018-11-23T12:17:41.485Z,57.70
2018-11-23T12:20:12.876Z,58.20
2018-11-23T12:22:41.531Z,57.27
2018-11-23T12:25:10.354Z,60.07
2018-11-23T12:27:38.921Z,57.07
2018-11-23T12:30:10.751Z,60.47
2018-11-23T12:32:40.016Z,68.53
2018-11-23T12:35:10.440Z,63.33
2018-11-23T12:37:40.117Z,68.43
2018-11-23T12:40:10.182Z,65.90
2018-11-23T12:42:38.934Z,65.17
2018-11-23T12:45:09.022Z,91.20
2018-11-23T12:47:37.681Z,58.67
2018-11-23T12:50:09.247Z,56.73
2018-11-23T12:52:38.014Z,56.23
2018-11-23T12:55:07.507Z,51.97
2018-11-23T12:57:36.146Z,57.90
2018-11-23T13:00:06.685Z,57.37
2018-11-23T13:02:35.402Z,55.67
2018-11-23T13:05:04.224Z,53.00
2018-11-23T13:07:33.022Z,47.37
2018-11-23T13:10:01.790Z,52.07
2018-11-23T13:12:30.367Z,51.23
2018-11-23T13:14:58.911Z,47.43
2018-11-23T13:17:27.696Z,49.03
2018-11-23T13:19:56.238Z,52.50
2018-11-23T13:22:24.946Z,48.40
2018-11-23T13:24:53.708Z,47.10
2018-11-23T13:27:22.317Z,50.40
2018-11-23T13:29:51.139Z,47.33
2018-11-23T13:32:19.768Z,50.70
2018-11-23T13:34:48.379Z,52.83
2018-11-23T13:37:17.019Z,82.43
2018-11-23T13:39:45.705Z,48.43
2018-11-23T13:42:14.183Z,67.43
2018-11-23T13:44:42.980Z,56.27
2018-11-23T13:47:11.642Z,64.27
2018-11-23T13:49:40.348Z,51.37
2018-11-23T13:52:08.816Z,46.80
2018-11-23T13:54:37.628Z,43.67
2018-11-23T13:57:06.378Z,43.30
2018-11-23T13:59:35.162Z,43.90
2018-11-23T14:02:03.710Z,42.87
2018-11-23T14:04:32.177Z,43.03
2018-11-23T14:07:00.874Z,41.53
2018-11-23T14:09:29.676Z,41.53
2018-11-23T14:11:58.183Z,38.90
2018-11-23T14:14:26.730Z,41.30
2018-11-23T14:16:55.392Z,38.53
2018-11-23T14:19:23.919Z,37.37
2018-11-23T14:21:52.577Z,50.70
2018-11-23T14:24:21.145Z,41.20
2018-11-23T14:26:49.927Z,35.37
2018-11-23T14:29:18.464Z,39.23
2018-11-23T14:31:47.139Z,38.97
2018-11-23T14:34:15.743Z,39.50
2018-11-23T14:36:44.557Z,42.17
2018-11-23T14:39:13.271Z,39.20
2018-11-23T14:41:41.817Z,47.60
2018-11-23T14:44:10.345Z,52.27
2018-11-23T14:46:39.048Z,58.27
2018-11-23T14:49:07.792Z,52.87
2018-11-23T14:51:36.661Z,45.00
2018-11-23T14:54:05.246Z,40.50
2018-11-23T14:56:33.830Z,38.97
2018-11-23T14:59:02.497Z,37.57
2018-11-23T15:01:32.374Z,39.83
2018-11-23T15:04:01.001Z,47.37
2018-11-23T15:06:29.574Z,41.83
2018-11-23T15:08:58.456Z,34.40
2018-11-23T15:11:27.100Z,37.10
2018-11-23T15:13:55.748Z,34.13
2018-11-23T15:16:24.458Z,44.73
2018-11-23T15:18:53.226Z,56.27
2018-11-23T15:21:21.765Z,60.30
2018-11-23T15:23:50.369Z,41.40
2018-11-23T15:26:19.137Z,44.70
2018-11-23T15:28:47.883Z,38.63
2018-11-23T15:31:16.609Z,43.37
2018-11-23T15:33:45.133Z,38.27
2018-11-23T15:36:13.797Z,40.00
2018-11-23T15:38:42.503Z,36.30
2018-11-23T15:41:11.046Z,35.47
2018-11-23T15:43:40.116Z,38.67
2018-11-23T15:46:08.986Z,51.40
2018-11-23T15:48:37.784Z,78.50
2018-11-23T15:51:08.222Z,34.47
2018-11-23T15:53:37.043Z,34.30
2018-11-23T15:56:05.964Z,49.87
2018-11-23T15:58:34.597Z,57.83
2018-11-23T16:01:03.769Z,60.97
2018-11-23T16:03:32.455Z,49.03
2018-11-23T16:06:01.218Z,44.57
2018-11-23T16:08:30.125Z,35.93
2018-11-23T16:10:58.615Z,36.03
2018-11-23T16:13:27.384Z,36.27
2018-11-23T16:15:56.213Z,40.47
2018-11-23T16:18:24.838Z,32.93
2018-11-23T16:20:53.325Z,33.80
2018-11-23T16:23:22.311Z,38.27
2018-11-23T16:25:51.596Z,47.97
2018-11-23T16:28:20.186Z,47.60
2018-11-23T16:30:50.314Z,43.47
2018-11-23T16:33:23.258Z,52.67
2018-11-23T16:35:51.947Z,32.97
2018-11-23T16:38:22.150Z,37.43
2018-11-23T16:40:53.633Z,35.73
2018-11-23T16:43:22.178Z,34.67
2018-11-23T16:45:50.950Z,31.70
2018-11-23T16:48:20.622Z,35.13
2018-11-23T16:50:49.154Z,30.70
2018-11-23T16:53:17.896Z,31.13
2018-11-23T16:55:46.437Z,29.27
2018-11-23T16:58:15.340Z,28.13
2018-11-23T17:00:45.425Z,31.30
2018-11-23T17:03:15.773Z,27.73
2018-11-23T17:05:47.190Z,28.47
2018-11-23T17:08:15.777Z,27.97
2018-11-23T17:10:44.363Z,26.43
2018-11-23T17:13:13.032Z,25.63
2018-11-23T17:15:41.664Z,25.97
2018-11-23T17:18:10.557Z,22.00
2018-11-23T17:20:39.817Z,23.20
2018-11-23T17:23:09.457Z,40.50
2018-11-23T17:25:38.008Z,35.20
2018-11-23T17:28:07.740Z,25.40
2018-11-23T17:30:37.149Z,24.27
2018-11-23T17:33:06.034Z,28.07
2018-11-23T17:35:34.633Z,26.73
2018-11-23T17:38:03.244Z,32.53
2018-11-23T17:40:33.772Z,33.53
2018-11-23T17:43:02.304Z,29.87
2018-11-23T17:45:32.207Z,36.73
2018-11-23T17:48:01.066Z,30.30
2018-11-23T17:50:31.139Z,34.53
2018-11-23T17:53:00.238Z,31.70
2018-11-23T17:55:29.011Z,36.37
2018-11-23T17:57:57.900Z,36.50
2018-11-23T18:00:28.034Z,31.27
2018-11-23T18:02:57.242Z,34.33
2018-11-23T18:05:26.623Z,32.10
2018-11-23T18:07:55.323Z,32.77
2018-11-23T18:10:26.302Z,30.67
2018-11-23T18:12:55.648Z,30.00
2018-11-23T18:15:25.467Z,31.87
2018-11-23T18:17:54.982Z,29.87
2018-11-23T18:20:24.670Z,35.40
2018-11-23T18:22:54.098Z,44.17
2018-11-23T18:25:24.349Z,44.63
2018-11-23T18:27:58.224Z,43.40
2018-11-23T18:30:27.016Z,41.73
2018-11-23T18:32:55.722Z,37.80
2018-11-23T18:35:24.388Z,35.53
2018-11-23T18:37:52.961Z,64.80
2018-11-23T18:40:21.552Z,55.03
2018-11-23T18:42:50.097Z,53.87
2018-11-23T18:45:18.765Z,61.63
2018-11-23T18:47:47.440Z,51.23
2018-11-23T18:50:17.045Z,52.17
2018-11-23T18:52:45.733Z,44.97
2018-11-23T18:55:18.163Z,53.57
2018-11-23T18:57:43.537Z,55.37
2018-11-23T19:00:15.097Z,154.40
2018-11-23T19:02:45.034Z,83.87
2018-11-23T19:05:17.104Z,58.37
2018-11-23T19:07:45.786Z,62.47
2018-11-23T19:10:14.738Z,55.77
2018-11-23T19:12:43.365Z,45.47
2018-11-23T19:15:13.378Z,47.03
2018-11-23T19:17:41.968Z,54.80
2018-11-23T19:20:12.369Z,51.50
2018-11-23T19:22:41.857Z,38.70
2018-11-23T19:25:10.511Z,41.37
2018-11-23T19:27:39.121Z,41.00
2018-11-23T19:30:10.521Z,43.40
2018-11-23T19:32:39.106Z,43.37
2018-11-23T19:35:08.104Z,38.67
2018-11-23T19:37:36.769Z,29.80
2018-11-23T19:40:07.896Z,25.47
2018-11-23T19:42:36.601Z,35.40
2018-11-23T19:45:06.472Z,30.93
2018-11-23T19:47:35.001Z,42.13
2018-11-23T19:50:03.749Z,33.63
2018-11-23T19:52:32.308Z,32.47
2018-11-23T19:55:00.848Z,39.53
2018-11-23T19:57:29.557Z,34.50
2018-11-23T19:59:58.257Z,31.77
2018-11-23T20:02:26.857Z,36.53
2018-11-23T20:04:55.555Z,32.37
2018-11-23T20:07:24.146Z,98.97
2018-11-23T20:09:52.707Z,51.23
2018-11-23T20:12:21.305Z,29.10
2018-11-23T20:14:49.840Z,29.50
2018-11-23T20:17:18.351Z,52.10
2018-11-23T20:19:47.122Z,77.50
2018-11-23T20:22:15.912Z,91.37
2018-11-23T20:24:44.644Z,45.83
2018-11-23T20:27:13.386Z,44.00
2018-11-23T20:29:41.911Z,74.00
2018-11-23T20:32:10.451Z,49.43
2018-11-23T20:34:39.278Z,68.60
2018-11-23T20:37:07.940Z,72.13
2018-11-23T20:39:36.616Z,37.83
2018-11-23T20:42:05.802Z,69.33
2018-11-23T20:44:34.581Z,25.90
2018-11-23T20:47:03.241Z,39.00
2018-11-23T20:49:32.088Z,33.40
2018-11-23T20:52:00.805Z,44.73
2018-11-23T20:54:29.323Z,95.47
2018-11-23T20:56:57.873Z,59.27
2018-11-23T20:59:26.432Z,41.17
2018-11-23T21:01:55.064Z,43.43
2018-11-23T21:04:23.677Z,108.70
2018-11-23T21:06:52.221Z,31.10
2018-11-23T21:09:20.750Z,23.30
2018-11-23T21:11:49.384Z,30.00
2018-11-23T21:14:17.918Z,22.87
2018-11-23T21:16:46.519Z,32.17
2018-11-23T21:19:15.258Z,29.83
2018-11-23T21:21:43.814Z,16.90
2018-11-23T21:24:12.628Z,18.20
2018-11-23T21:26:41.235Z,30.60
2018-11-23T21:29:10.033Z,27.77
2018-11-23T21:31:38.683Z,22.07
2018-11-23T21:34:07.405Z,19.53
2018-11-23T21:36:36.023Z,23.53
2018-11-23T21:39:13.544Z,19.57
2018-11-23T21:41:35.667Z,17.53
2018-11-23T21:44:04.265Z,26.90
2018-11-23T21:46:32.830Z,16.70
2018-11-23T21:49:01.703Z,17.43
2018-11-23T21:51:30.368Z,21.03
2018-11-23T21:53:58.902Z,25.50
2018-11-23T21:56:27.617Z,24.10
2018-11-23T21:58:56.229Z,21.17
2018-11-23T22:01:25.006Z,25.90
2018-11-23T22:03:53.674Z,23.13
2018-11-23T22:06:22.413Z,22.37
2018-11-23T22:08:50.952Z,21.43
2018-11-23T22:11:19.672Z,30.00
2018-11-23T22:13:48.356Z,44.30
2018-11-23T22:16:16.890Z,39.97
2018-11-23T22:18:45.477Z,29.23
2018-11-23T22:21:14.238Z,16.37
2018-11-23T22:23:42.768Z,16.43
2018-11-23T22:26:11.355Z,19.70
2018-11-23T22:28:40.205Z,14.43
2018-11-23T22:31:08.757Z,15.73
2018-11-23T22:33:37.401Z,25.60
2018-11-23T22:36:06.259Z,18.43
2018-11-23T22:38:34.929Z,18.47
2018-11-23T22:41:03.644Z,16.83
2018-11-23T22:43:32.334Z,15.60
2018-11-23T22:46:00.996Z,15.37
2018-11-23T22:48:29.632Z,15.67
2018-11-23T22:50:58.425Z,20.43
2018-11-23T22:53:27.235Z,18.93
2018-11-23T22:55:55.825Z,17.50
2018-11-23T22:58:24.514Z,12.53
2018-11-23T23:00:57.442Z,13.57
2018-11-23T23:03:26.220Z,20.43
2018-11-23T23:05:55.044Z,12.73
2018-11-23T23:08:23.636Z,13.00
2018-11-23T23:10:52.250Z,11.07
2018-11-23T23:13:20.816Z,10.80
2018-11-23T23:15:49.410Z,10.97
2018-11-23T23:18:18.059Z,12.30
2018-11-23T23:20:46.853Z,12.20
2018-11-23T23:23:15.598Z,11.03
2018-11-23T23:25:44.117Z,10.00
2018-11-23T23:28:12.674Z,13.27
2018-11-23T23:30:41.270Z,10.50
2018-11-23T23:33:09.867Z,11.40
2018-11-23T23:35:38.438Z,10.90
2018-11-23T23:38:07.209Z,10.30
2018-11-23T23:40:35.763Z,9.83
2018-11-23T23:43:04.398Z,11.07
2018-11-23T23:45:33.097Z,10.03
2018-11-23T23:48:01.632Z,11.07
2018-11-23T23:50:30.189Z,12.57
2018-11-23T23:52:59.046Z,12.00
2018-11-23T23:55:27.605Z,9.60
2018-11-23T23:57:56.284Z,8.97
